FMNM/MJN METAR and TAF weather

Enter ICAO airport designator
Station Type Date Time Source
FMNM METAR 2019/08/24 09:00 UTC NOAA

FMNM 240900Z 15007KT 100V210 CAVOK 33/14 Q1017 NOSIG


Station Type Date Time Source
FMNM Decoded METAR 2019/08/24 09:00 UTC NOAA

Station name not available
Aug 24, 2019 - 05:00 AM EDT / 2019.08.24 0900 UTC
Wind: from the SSE (150 degrees) at 8 MPH (7 KT) (direction variable):0
Visibility: greater than 7 mile(s):0
Temperature: 91 F (33 C)
Dew Point: 57 F (14 C)
Relative Humidity: 31%
Pressure (altimeter): 30.03 in. Hg (1017 hPa)
ob: FMNM 240900Z 15007KT 100V210 CAVOK 33/14 Q1017 NOSIG
cycle: 9

Station Type Date Time Source
FMNM TAF 2019/08/24 06:10 UTC NOAA

TAF FMNM 240500Z 2406/2506 12008KT 9999 FEW023
BECMG 2410/2413 30010KT
BECMG 2420/2423 11006KT

Example: see airport list